sensor_id;sensor_type;location;lat;lon;timestamp;P1;durP1;ratioP1;P2;durP2;ratioP2
44366;SDS011;30086;57.660;12.000;2023-03-03T00:00:24;18.05;;;6.80;;
44366;SDS011;30086;57.660;12.000;2023-03-03T00:02:51;11.23;;;6.90;;
44366;SDS011;30086;57.660;12.000;2023-03-03T00:05:18;13.10;;;7.18;;
44366;SDS011;30086;57.660;12.000;2023-03-03T00:07:48;12.52;;;7.40;;
44366;SDS011;30086;57.660;12.000;2023-03-03T00:10:19;13.27;;;6.43;;
44366;SDS011;30086;57.660;12.000;2023-03-03T00:12:47;20.73;;;6.53;;
44366;SDS011;30086;57.660;12.000;2023-03-03T00:15:20;14.52;;;5.25;;
44366;SDS011;30086;57.660;12.000;2023-03-03T00:17:46;12.93;;;5.10;;
44366;SDS011;30086;57.660;12.000;2023-03-03T00:23:22;9.70;;;5.32;;
44366;SDS011;30086;57.660;12.000;2023-03-03T00:25:45;12.07;;;5.32;;
44366;SDS011;30086;57.660;12.000;2023-03-03T00:28:28;11.80;;;5.72;;
44366;SDS011;30086;57.660;12.000;2023-03-03T00:30:55;12.80;;;5.63;;
44366;SDS011;30086;57.660;12.000;2023-03-03T00:33:32;16.92;;;5.95;;
44366;SDS011;30086;57.660;12.000;2023-03-03T00:38:39;13.93;;;4.68;;
44366;SDS011;30086;57.660;12.000;2023-03-03T00:43:47;10.88;;;4.75;;
44366;SDS011;30086;57.660;12.000;2023-03-03T00:46:17;15.63;;;6.28;;
44366;SDS011;30086;57.660;12.000;2023-03-03T00:48:49;8.60;;;4.75;;
44366;SDS011;30086;57.660;12.000;2023-03-03T00:51:35;12.35;;;4.32;;
44366;SDS011;30086;57.660;12.000;2023-03-03T00:54:02;10.32;;;4.63;;
44366;SDS011;30086;57.660;12.000;2023-03-03T00:56:29;10.65;;;4.85;;
44366;SDS011;30086;57.660;12.000;2023-03-03T00:58:57;12.70;;;5.05;;
44366;SDS011;30086;57.660;12.000;2023-03-03T01:01:23;9.40;;;5.15;;
44366;SDS011;30086;57.660;12.000;2023-03-03T01:03:51;9.70;;;4.72;;
44366;SDS011;30086;57.660;12.000;2023-03-03T01:06:22;9.75;;;4.90;;
44366;SDS011;30086;57.660;12.000;2023-03-03T01:08:48;10.38;;;5.30;;
44366;SDS011;30086;57.660;12.000;2023-03-03T01:11:16;9.32;;;4.55;;
44366;SDS011;30086;57.660;12.000;2023-03-03T01:13:48;8.65;;;4.60;;
44366;SDS011;30086;57.660;12.000;2023-03-03T01:16:15;12.98;;;5.95;;
44366;SDS011;30086;57.660;12.000;2023-03-03T01:18:41;10.80;;;5.65;;
44366;SDS011;30086;57.660;12.000;2023-03-03T01:21:08;14.05;;;5.75;;
44366;SDS011;30086;57.660;12.000;2023-03-03T01:23:37;12.02;;;5.60;;
44366;SDS011;30086;57.660;12.000;2023-03-03T01:26:04;10.68;;;5.40;;
44366;SDS011;30086;57.660;12.000;2023-03-03T01:28:31;15.55;;;6.15;;
44366;SDS011;30086;57.660;12.000;2023-03-03T01:31:01;13.45;;;5.78;;
44366;SDS011;30086;57.660;12.000;2023-03-03T01:33:28;17.05;;;6.00;;
44366;SDS011;30086;57.660;12.000;2023-03-03T01:35:55;13.35;;;5.07;;
44366;SDS011;30086;57.660;12.000;2023-03-03T01:38:23;12.48;;;5.18;;
44366;SDS011;30086;57.660;12.000;2023-03-03T01:40:53;11.18;;;5.05;;
44366;SDS011;30086;57.660;12.000;2023-03-03T01:43:20;13.60;;;5.60;;
44366;SDS011;30086;57.660;12.000;2023-03-03T01:48:15;13.25;;;6.30;;
44366;SDS011;30086;57.660;12.000;2023-03-03T01:50:49;10.65;;;5.43;;
44366;SDS011;30086;57.660;12.000;2023-03-03T01:53:36;11.98;;;5.55;;
44366;SDS011;30086;57.660;12.000;2023-03-03T01:56:04;17.08;;;5.80;;
44366;SDS011;30086;57.660;12.000;2023-03-03T01:58:33;6.75;;;3.45;;
44366;SDS011;30086;57.660;12.000;2023-03-03T02:01:05;10.70;;;4.55;;
44366;SDS011;30086;57.660;12.000;2023-03-03T02:03:33;11.10;;;4.93;;
44366;SDS011;30086;57.660;12.000;2023-03-03T02:06:03;9.32;;;5.40;;
44366;SDS011;30086;57.660;12.000;2023-03-03T02:08:33;12.40;;;5.15;;
44366;SDS011;30086;57.660;12.000;2023-03-03T02:11:01;12.93;;;5.43;;
44366;SDS011;30086;57.660;12.000;2023-03-03T02:13:28;11.52;;;5.75;;
44366;SDS011;30086;57.660;12.000;2023-03-03T02:15:54;6.90;;;4.40;;
44366;SDS011;30086;57.660;12.000;2023-03-03T02:18:20;10.13;;;4.90;;
44366;SDS011;30086;57.660;12.000;2023-03-03T02:20:57;8.98;;;4.15;;
44366;SDS011;30086;57.660;12.000;2023-03-03T02:28:29;10.70;;;4.60;;
44366;SDS011;30086;57.660;12.000;2023-03-03T02:30:59;10.73;;;4.90;;
44366;SDS011;30086;57.660;12.000;2023-03-03T02:33:28;16.10;;;5.13;;
44366;SDS011;30086;57.660;12.000;2023-03-03T02:35:55;14.07;;;5.43;;
44366;SDS011;30086;57.660;12.000;2023-03-03T02:44:01;11.32;;;5.32;;
44366;SDS011;30086;57.660;12.000;2023-03-03T02:46:28;13.05;;;5.70;;
44366;SDS011;30086;57.660;12.000;2023-03-03T02:49:00;8.07;;;4.75;;
44366;SDS011;30086;57.660;12.000;2023-03-03T02:51:27;11.52;;;5.60;;
44366;SDS011;30086;57.660;12.000;2023-03-03T02:53:53;13.25;;;5.80;;
44366;SDS011;30086;57.660;12.000;2023-03-03T02:56:20;25.35;;;8.50;;
44366;SDS011;30086;57.660;12.000;2023-03-03T02:58:46;26.17;;;8.77;;
44366;SDS011;30086;57.660;12.000;2023-03-03T03:01:13;27.58;;;8.13;;
44366;SDS011;30086;57.660;12.000;2023-03-03T03:03:55;41.72;;;9.88;;
44366;SDS011;30086;57.660;12.000;2023-03-03T03:06:22;31.05;;;11.27;;
44366;SDS011;30086;57.660;12.000;2023-03-03T03:08:51;46.92;;;11.60;;
44366;SDS011;30086;57.660;12.000;2023-03-03T03:11:18;41.25;;;11.68;;
44366;SDS011;30086;57.660;12.000;2023-03-03T03:13:44;39.90;;;10.30;;
44366;SDS011;30086;57.660;12.000;2023-03-03T03:16:10;138.73;;;16.75;;
44366;SDS011;30086;57.660;12.000;2023-03-03T03:18:37;56.17;;;11.60;;
44366;SDS011;30086;57.660;12.000;2023-03-03T03:21:10;57.17;;;12.23;;
44366;SDS011;30086;57.660;12.000;2023-03-03T03:23:37;44.92;;;9.23;;
44366;SDS011;30086;57.660;12.000;2023-03-03T03:26:03;72.03;;;11.70;;
44366;SDS011;30086;57.660;12.000;2023-03-03T03:28:30;59.50;;;12.00;;
44366;SDS011;30086;57.660;12.000;2023-03-03T03:30:56;98.88;;;14.63;;
44366;SDS011;30086;57.660;12.000;2023-03-03T03:33:22;72.90;;;13.40;;
44366;SDS011;30086;57.660;12.000;2023-03-03T03:35:52;86.75;;;14.45;;
44366;SDS011;30086;57.660;12.000;2023-03-03T03:38:23;123.35;;;17.52;;
44366;SDS011;30086;57.660;12.000;2023-03-03T03:40:51;30.05;;;10.45;;
44366;SDS011;30086;57.660;12.000;2023-03-03T03:43:19;42.45;;;9.93;;
44366;SDS011;30086;57.660;12.000;2023-03-03T03:45:46;33.65;;;10.73;;
44366;SDS011;30086;57.660;12.000;2023-03-03T03:48:13;35.97;;;10.93;;
44366;SDS011;30086;57.660;12.000;2023-03-03T03:50:40;69.18;;;13.43;;
44366;SDS011;30086;57.660;12.000;2023-03-03T03:53:06;72.88;;;13.88;;
44366;SDS011;30086;57.660;12.000;2023-03-03T03:55:34;67.43;;;13.50;;
44366;SDS011;30086;57.660;12.000;2023-03-03T03:58:00;99.43;;;15.98;;
44366;SDS011;30086;57.660;12.000;2023-03-03T04:00:26;88.13;;;14.52;;
44366;SDS011;30086;57.660;12.000;2023-03-03T04:02:53;146.98;;;18.05;;
44366;SDS011;30086;57.660;12.000;2023-03-03T04:05:19;140.43;;;17.92;;
44366;SDS011;30086;57.660;12.000;2023-03-03T04:07:46;90.75;;;14.65;;
44366;SDS011;30086;57.660;12.000;2023-03-03T04:10:12;76.65;;;13.75;;
44366;SDS011;30086;57.660;12.000;2023-03-03T04:12:38;78.53;;;13.52;;
44366;SDS011;30086;57.660;12.000;2023-03-03T04:15:08;124.32;;;13.88;;
44366;SDS011;30086;57.660;12.000;2023-03-03T04:17:34;153.43;;;18.60;;
44366;SDS011;30086;57.660;12.000;2023-03-03T04:20:00;155.40;;;15.45;;
44366;SDS011;30086;57.660;12.000;2023-03-03T04:22:28;158.60;;;19.20;;
44366;SDS011;30086;57.660;12.000;2023-03-03T04:25:00;132.10;;;15.52;;
44366;SDS011;30086;57.660;12.000;2023-03-03T04:27:29;127.78;;;15.38;;
44366;SDS011;30086;57.660;12.000;2023-03-03T04:29:56;246.40;;;23.13;;
44366;SDS011;30086;57.660;12.000;2023-03-03T04:32:22;196.90;;;22.58;;
44366;SDS011;30086;57.660;12.000;2023-03-03T04:34:48;75.65;;;16.88;;
44366;SDS011;30086;57.660;12.000;2023-03-03T04:37:14;80.32;;;16.23;;
44366;SDS011;30086;57.660;12.000;2023-03-03T04:39:41;111.22;;;16.90;;
44366;SDS011;30086;57.660;12.000;2023-03-03T04:42:07;108.80;;;15.70;;
44366;SDS011;30086;57.660;12.000;2023-03-03T04:44:33;89.88;;;15.98;;
44366;SDS011;30086;57.660;12.000;2023-03-03T04:46:59;74.63;;;14.00;;
44366;SDS011;30086;57.660;12.000;2023-03-03T04:49:25;94.05;;;16.48;;
44366;SDS011;30086;57.660;12.000;2023-03-03T04:51:51;88.63;;;16.17;;
44366;SDS011;30086;57.660;12.000;2023-03-03T04:54:17;82.90;;;15.95;;
44366;SDS011;30086;57.660;12.000;2023-03-03T04:56:43;74.78;;;15.18;;
44366;SDS011;30086;57.660;12.000;2023-03-03T04:59:10;56.83;;;14.73;;
44366;SDS011;30086;57.660;12.000;2023-03-03T05:01:36;59.00;;;13.55;;
44366;SDS011;30086;57.660;12.000;2023-03-03T05:04:02;56.00;;;14.43;;
44366;SDS011;30086;57.660;12.000;2023-03-03T05:06:28;50.90;;;11.55;;
44366;SDS011;30086;57.660;12.000;2023-03-03T05:08:54;40.63;;;11.68;;
44366;SDS011;30086;57.660;12.000;2023-03-03T05:11:21;34.08;;;9.93;;
44366;SDS011;30086;57.660;12.000;2023-03-03T05:13:47;42.42;;;11.43;;
44366;SDS011;30086;57.660;12.000;2023-03-03T05:16:16;39.90;;;10.90;;
44366;SDS011;30086;57.660;12.000;2023-03-03T05:18:43;39.88;;;11.60;;
44366;SDS011;30086;57.660;12.000;2023-03-03T05:21:10;38.67;;;10.65;;
44366;SDS011;30086;57.660;12.000;2023-03-03T05:23:36;43.90;;;10.68;;
44366;SDS011;30086;57.660;12.000;2023-03-03T05:26:02;38.60;;;10.50;;
44366;SDS011;30086;57.660;12.000;2023-03-03T05:28:28;39.33;;;9.95;;
44366;SDS011;30086;57.660;12.000;2023-03-03T05:30:56;28.27;;;9.25;;
44366;SDS011;30086;57.660;12.000;2023-03-03T05:33:23;27.13;;;8.27;;
44366;SDS011;30086;57.660;12.000;2023-03-03T05:35:54;27.48;;;7.93;;
44366;SDS011;30086;57.660;12.000;2023-03-03T05:38:21;25.65;;;7.93;;
44366;SDS011;30086;57.660;12.000;2023-03-03T05:40:47;25.85;;;7.95;;
44366;SDS011;30086;57.660;12.000;2023-03-03T05:43:15;27.17;;;7.53;;
44366;SDS011;30086;57.660;12.000;2023-03-03T05:45:41;27.63;;;8.68;;
44366;SDS011;30086;57.660;12.000;2023-03-03T05:48:08;37.70;;;10.45;;
44366;SDS011;30086;57.660;12.000;2023-03-03T05:50:35;46.15;;;12.85;;
44366;SDS011;30086;57.660;12.000;2023-03-03T05:53:05;39.60;;;11.48;;
44366;SDS011;30086;57.660;12.000;2023-03-03T05:55:32;37.47;;;11.65;;
44366;SDS011;30086;57.660;12.000;2023-03-03T05:57:58;41.53;;;13.48;;
44366;SDS011;30086;57.660;12.000;2023-03-03T06:00:25;43.13;;;12.02;;
44366;SDS011;30086;57.660;12.000;2023-03-03T06:02:54;35.33;;;12.20;;
44366;SDS011;30086;57.660;12.000;2023-03-03T06:05:20;28.85;;;10.63;;
44366;SDS011;30086;57.660;12.000;2023-03-03T06:07:52;39.83;;;12.13;;
44366;SDS011;30086;57.660;12.000;2023-03-03T06:10:28;18.77;;;6.28;;
44366;SDS011;30086;57.660;12.000;2023-03-03T06:13:17;31.90;;;11.48;;
44366;SDS011;30086;57.660;12.000;2023-03-03T06:15:43;38.53;;;11.73;;
44366;SDS011;30086;57.660;12.000;2023-03-03T06:18:09;32.22;;;11.77;;
44366;SDS011;30086;57.660;12.000;2023-03-03T06:20:39;34.75;;;12.02;;
44366;SDS011;30086;57.660;12.000;2023-03-03T06:23:06;33.90;;;12.15;;
44366;SDS011;30086;57.660;12.000;2023-03-03T06:25:34;37.08;;;11.05;;
44366;SDS011;30086;57.660;12.000;2023-03-03T06:28:10;32.40;;;10.35;;
44366;SDS011;30086;57.660;12.000;2023-03-03T06:30:44;29.25;;;10.52;;
44366;SDS011;30086;57.660;12.000;2023-03-03T06:33:26;28.38;;;9.50;;
44366;SDS011;30086;57.660;12.000;2023-03-03T06:36:13;22.75;;;8.63;;
44366;SDS011;30086;57.660;12.000;2023-03-03T06:38:42;25.20;;;8.18;;
44366;SDS011;30086;57.660;12.000;2023-03-03T06:41:29;27.13;;;7.95;;
44366;SDS011;30086;57.660;12.000;2023-03-03T06:43:56;29.05;;;9.52;;
44366;SDS011;30086;57.660;12.000;2023-03-03T06:46:24;29.25;;;9.15;;
44366;SDS011;30086;57.660;12.000;2023-03-03T06:48:53;26.70;;;8.07;;
44366;SDS011;30086;57.660;12.000;2023-03-03T06:51:23;27.58;;;8.48;;
44366;SDS011;30086;57.660;12.000;2023-03-03T06:53:54;24.33;;;8.75;;
44366;SDS011;30086;57.660;12.000;2023-03-03T06:56:31;23.20;;;8.35;;
44366;SDS011;30086;57.660;12.000;2023-03-03T06:59:19;19.75;;;8.10;;
44366;SDS011;30086;57.660;12.000;2023-03-03T07:01:47;21.33;;;8.25;;
44366;SDS011;30086;57.660;12.000;2023-03-03T07:06:50;19.52;;;8.27;;
44366;SDS011;30086;57.660;12.000;2023-03-03T07:09:28;18.20;;;7.28;;
44366;SDS011;30086;57.660;12.000;2023-03-03T07:12:01;21.38;;;7.80;;
44366;SDS011;30086;57.660;12.000;2023-03-03T07:14:41;22.50;;;7.40;;
44366;SDS011;30086;57.660;12.000;2023-03-03T07:17:22;21.17;;;7.45;;
44366;SDS011;30086;57.660;12.000;2023-03-03T07:19:48;16.70;;;6.38;;
44366;SDS011;30086;57.660;12.000;2023-03-03T07:22:16;20.75;;;7.75;;
44366;SDS011;30086;57.660;12.000;2023-03-03T07:24:53;23.60;;;8.05;;
44366;SDS011;30086;57.660;12.000;2023-03-03T07:27:28;17.33;;;7.25;;
44366;SDS011;30086;57.660;12.000;2023-03-03T07:30:25;13.57;;;6.07;;
44366;SDS011;30086;57.660;12.000;2023-03-03T07:32:55;17.20;;;6.28;;
44366;SDS011;30086;57.660;12.000;2023-03-03T07:35:40;13.38;;;5.72;;
44366;SDS011;30086;57.660;12.000;2023-03-03T07:40:48;13.93;;;6.78;;
44366;SDS011;30086;57.660;12.000;2023-03-03T07:46:00;17.20;;;6.28;;
44366;SDS011;30086;57.660;12.000;2023-03-03T07:48:34;16.80;;;6.30;;
44366;SDS011;30086;57.660;12.000;2023-03-03T07:51:10;12.32;;;6.25;;
44366;SDS011;30086;57.660;12.000;2023-03-03T07:53:38;12.25;;;5.30;;
44366;SDS011;30086;57.660;12.000;2023-03-03T07:58:49;19.58;;;6.60;;
44366;SDS011;30086;57.660;12.000;2023-03-03T08:04:22;14.32;;;5.93;;
44366;SDS011;30086;57.660;12.000;2023-03-03T08:06:52;16.58;;;6.07;;
44366;SDS011;30086;57.660;12.000;2023-03-03T08:09:24;18.90;;;6.18;;
44366;SDS011;30086;57.660;12.000;2023-03-03T08:14:47;17.00;;;6.22;;
44366;SDS011;30086;57.660;12.000;2023-03-03T08:17:52;18.03;;;6.53;;
44366;SDS011;30086;57.660;12.000;2023-03-03T08:22:58;16.23;;;6.70;;
44366;SDS011;30086;57.660;12.000;2023-03-03T08:25:24;17.52;;;6.38;;
44366;SDS011;30086;57.660;12.000;2023-03-03T08:27:51;20.92;;;6.97;;
44366;SDS011;30086;57.660;12.000;2023-03-03T08:30:38;12.80;;;6.55;;
44366;SDS011;30086;57.660;12.000;2023-03-03T08:33:06;14.95;;;6.57;;
44366;SDS011;30086;57.660;12.000;2023-03-03T08:35:54;13.65;;;6.65;;
44366;SDS011;30086;57.660;12.000;2023-03-03T08:38:23;13.60;;;6.53;;
44366;SDS011;30086;57.660;12.000;2023-03-03T08:40:55;17.17;;;6.60;;
44366;SDS011;30086;57.660;12.000;2023-03-03T08:43:21;18.58;;;6.20;;
44366;SDS011;30086;57.660;12.000;2023-03-03T08:45:49;11.55;;;5.68;;
44366;SDS011;30086;57.660;12.000;2023-03-03T08:48:17;14.27;;;5.25;;
44366;SDS011;30086;57.660;12.000;2023-03-03T08:50:48;9.95;;;5.13;;
44366;SDS011;30086;57.660;12.000;2023-03-03T08:53:15;15.68;;;5.90;;
44366;SDS011;30086;57.660;12.000;2023-03-03T08:55:54;13.32;;;6.05;;
44366;SDS011;30086;57.660;12.000;2023-03-03T08:58:23;13.05;;;6.10;;
44366;SDS011;30086;57.660;12.000;2023-03-03T09:00:53;12.93;;;6.20;;
44366;SDS011;30086;57.660;12.000;2023-03-03T09:03:28;12.85;;;6.13;;
44366;SDS011;30086;57.660;12.000;2023-03-03T09:05:56;15.07;;;5.68;;
44366;SDS011;30086;57.660;12.000;2023-03-03T09:08:23;14.00;;;6.38;;
44366;SDS011;30086;57.660;12.000;2023-03-03T09:10:49;14.75;;;6.95;;
44366;SDS011;30086;57.660;12.000;2023-03-03T09:13:16;15.77;;;6.88;;
44366;SDS011;30086;57.660;12.000;2023-03-03T09:15:44;13.63;;;6.45;;
44366;SDS011;30086;57.660;12.000;2023-03-03T09:18:21;15.02;;;7.10;;
44366;SDS011;30086;57.660;12.000;2023-03-03T09:20:56;15.93;;;6.45;;
44366;SDS011;30086;57.660;12.000;2023-03-03T09:23:48;15.38;;;7.03;;
44366;SDS011;30086;57.660;12.000;2023-03-03T09:26:30;21.50;;;6.82;;
44366;SDS011;30086;57.660;12.000;2023-03-03T09:29:22;17.88;;;6.53;;
44366;SDS011;30086;57.660;12.000;2023-03-03T09:31:54;14.98;;;6.82;;
44366;SDS011;30086;57.660;12.000;2023-03-03T09:34:42;13.98;;;6.90;;
44366;SDS011;30086;57.660;12.000;2023-03-03T09:37:33;15.55;;;7.18;;
44366;SDS011;30086;57.660;12.000;2023-03-03T09:43:03;13.95;;;7.20;;
44366;SDS011;30086;57.660;12.000;2023-03-03T09:52:26;13.80;;;6.70;;
44366;SDS011;30086;57.660;12.000;2023-03-03T10:04:27;7.30;;;4.47;;
44366;SDS011;30086;57.660;12.000;2023-03-03T10:13:01;10.88;;;5.45;;
44366;SDS011;30086;57.660;12.000;2023-03-03T10:16:03;13.73;;;5.50;;
44366;SDS011;30086;57.660;12.000;2023-03-03T10:18:51;12.43;;;5.15;;
44366;SDS011;30086;57.660;12.000;2023-03-03T10:29:34;11.57;;;4.18;;
44366;SDS011;30086;57.660;12.000;2023-03-03T10:32:46;11.73;;;3.97;;
44366;SDS011;30086;57.660;12.000;2023-03-03T10:38:31;4.22;;;2.13;;
44366;SDS011;30086;57.660;12.000;2023-03-03T10:56:08;4.55;;;1.88;;
44366;SDS011;30086;57.660;12.000;2023-03-03T11:05:07;8.32;;;2.10;;
44366;SDS011;30086;57.660;12.000;2023-03-03T11:13:22;8.25;;;2.67;;
44366;SDS011;30086;57.660;12.000;2023-03-03T11:36:31;6.38;;;2.00;;
44366;SDS011;30086;57.660;12.000;2023-03-03T11:39:24;10.05;;;2.13;;
44366;SDS011;30086;57.660;12.000;2023-03-03T11:45:30;2.67;;;1.42;;
44366;SDS011;30086;57.660;12.000;2023-03-03T11:51:18;5.63;;;1.50;;
44366;SDS011;30086;57.660;12.000;2023-03-03T11:56:44;7.68;;;1.67;;
44366;SDS011;30086;57.660;12.000;2023-03-03T12:04:49;7.40;;;1.70;;
44366;SDS011;30086;57.660;12.000;2023-03-03T12:10:47;10.32;;;2.28;;
44366;SDS011;30086;57.660;12.000;2023-03-03T12:13:33;3.25;;;1.15;;
44366;SDS011;30086;57.660;12.000;2023-03-03T12:19:19;10.90;;;1.70;;
44366;SDS011;30086;57.660;12.000;2023-03-03T12:40:00;9.32;;;2.10;;
44366;SDS011;30086;57.660;12.000;2023-03-03T13:06:42;10.25;;;2.22;;
44366;SDS011;30086;57.660;12.000;2023-03-03T13:24:59;17.85;;;3.15;;
44366;SDS011;30086;57.660;12.000;2023-03-03T13:27:44;9.05;;;2.50;;
44366;SDS011;30086;57.660;12.000;2023-03-03T13:30:14;11.15;;;2.53;;
44366;SDS011;30086;57.660;12.000;2023-03-03T13:32:51;16.95;;;2.70;;
44366;SDS011;30086;57.660;12.000;2023-03-03T13:38:12;10.63;;;3.40;;
44366;SDS011;30086;57.660;12.000;2023-03-03T13:41:23;9.52;;;3.22;;
44366;SDS011;30086;57.660;12.000;2023-03-03T13:44:08;14.95;;;3.33;;
44366;SDS011;30086;57.660;12.000;2023-03-03T13:52:14;15.85;;;3.47;;
44366;SDS011;30086;57.660;12.000;2023-03-03T13:57:18;12.18;;;3.55;;
44366;SDS011;30086;57.660;12.000;2023-03-03T14:19:04;19.90;;;4.50;;
44366;SDS011;30086;57.660;12.000;2023-03-03T14:24:30;10.95;;;4.00;;
44366;SDS011;30086;57.660;12.000;2023-03-03T14:27:00;12.90;;;3.85;;
44366;SDS011;30086;57.660;12.000;2023-03-03T14:29:46;17.60;;;4.40;;
44366;SDS011;30086;57.660;12.000;2023-03-03T14:32:24;10.48;;;3.40;;
44366;SDS011;30086;57.660;12.000;2023-03-03T14:35:12;9.50;;;3.60;;
44366;SDS011;30086;57.660;12.000;2023-03-03T14:38:22;16.77;;;3.13;;
44366;SDS011;30086;57.660;12.000;2023-03-03T14:41:02;12.25;;;4.38;;
44366;SDS011;30086;57.660;12.000;2023-03-03T14:43:56;14.40;;;4.07;;
44366;SDS011;30086;57.660;12.000;2023-03-03T14:46:31;14.98;;;3.38;;
44366;SDS011;30086;57.660;12.000;2023-03-03T14:49:32;10.63;;;3.83;;
44366;SDS011;30086;57.660;12.000;2023-03-03T14:52:29;10.00;;;4.80;;
44366;SDS011;30086;57.660;12.000;2023-03-03T14:54:56;12.77;;;4.70;;
44366;SDS011;30086;57.660;12.000;2023-03-03T14:57:40;10.88;;;3.80;;
44366;SDS011;30086;57.660;12.000;2023-03-03T15:03:04;12.55;;;4.10;;
44366;SDS011;30086;57.660;12.000;2023-03-03T15:06:13;21.05;;;4.00;;
44366;SDS011;30086;57.660;12.000;2023-03-03T15:12:22;9.93;;;3.92;;
44366;SDS011;30086;57.660;12.000;2023-03-03T15:15:23;17.02;;;3.45;;
44366;SDS011;30086;57.660;12.000;2023-03-03T15:17:58;13.38;;;4.00;;
44366;SDS011;30086;57.660;12.000;2023-03-03T15:21:04;9.68;;;2.78;;
44366;SDS011;30086;57.660;12.000;2023-03-03T15:29:47;3.92;;;0.82;;
44366;SDS011;30086;57.660;12.000;2023-03-03T15:32:27;6.18;;;1.58;;
44366;SDS011;30086;57.660;12.000;2023-03-03T15:35:21;9.00;;;1.90;;
44366;SDS011;30086;57.660;12.000;2023-03-03T15:40:54;8.00;;;1.67;;
44366;SDS011;30086;57.660;12.000;2023-03-03T15:52:49;15.20;;;1.75;;
44366;SDS011;30086;57.660;12.000;2023-03-03T16:03:38;11.88;;;1.65;;
44366;SDS011;30086;57.660;12.000;2023-03-03T16:06:46;9.88;;;2.60;;
44366;SDS011;30086;57.660;12.000;2023-03-03T16:20:42;12.68;;;2.17;;
44366;SDS011;30086;57.660;12.000;2023-03-03T16:23:38;21.58;;;2.00;;
44366;SDS011;30086;57.660;12.000;2023-03-03T16:29:51;9.43;;;1.38;;
44366;SDS011;30086;57.660;12.000;2023-03-03T16:32:46;9.73;;;1.65;;
44366;SDS011;30086;57.660;12.000;2023-03-03T16:36:11;3.45;;;0.85;;
44366;SDS011;30086;57.660;12.000;2023-03-03T16:39:21;6.15;;;0.95;;
44366;SDS011;30086;57.660;12.000;2023-03-03T16:42:24;15.82;;;2.92;;
44366;SDS011;30086;57.660;12.000;2023-03-03T16:47:58;3.10;;;1.00;;
44366;SDS011;30086;57.660;12.000;2023-03-03T16:50:53;16.50;;;2.30;;
44366;SDS011;30086;57.660;12.000;2023-03-03T16:53:42;22.00;;;1.77;;
44366;SDS011;30086;57.660;12.000;2023-03-03T16:56:31;12.63;;;1.92;;
44366;SDS011;30086;57.660;12.000;2023-03-03T17:01:58;15.48;;;2.00;;
44366;SDS011;30086;57.660;12.000;2023-03-03T17:04:48;14.55;;;1.70;;
44366;SDS011;30086;57.660;12.000;2023-03-03T17:07:42;12.18;;;1.25;;
44366;SDS011;30086;57.660;12.000;2023-03-03T17:18:55;2.45;;;0.77;;
44366;SDS011;30086;57.660;12.000;2023-03-03T17:21:55;16.27;;;1.67;;
44366;SDS011;30086;57.660;12.000;2023-03-03T17:52:39;2.47;;;0.35;;
44366;SDS011;30086;57.660;12.000;2023-03-03T17:58:37;7.03;;;1.30;;
44366;SDS011;30086;57.660;12.000;2023-03-03T18:18:01;1.38;;;0.77;;
44366;SDS011;30086;57.660;12.000;2023-03-03T18:20:29;3.58;;;1.23;;
44366;SDS011;30086;57.660;12.000;2023-03-03T18:25:54;1.70;;;0.80;;
44366;SDS011;30086;57.660;12.000;2023-03-03T18:31:13;2.78;;;0.45;;
44366;SDS011;30086;57.660;12.000;2023-03-03T18:34:06;3.20;;;0.65;;
44366;SDS011;30086;57.660;12.000;2023-03-03T18:44:37;6.93;;;0.35;;
44366;SDS011;30086;57.660;12.000;2023-03-03T18:47:03;2.28;;;1.00;;
44366;SDS011;30086;57.660;12.000;2023-03-03T18:52:31;3.95;;;0.63;;
44366;SDS011;30086;57.660;12.000;2023-03-03T18:57:34;4.38;;;0.68;;
44366;SDS011;30086;57.660;12.000;2023-03-03T19:00:15;6.57;;;1.17;;
44366;SDS011;30086;57.660;12.000;2023-03-03T19:02:50;3.95;;;1.27;;
44366;SDS011;30086;57.660;12.000;2023-03-03T19:05:21;4.07;;;0.90;;
44366;SDS011;30086;57.660;12.000;2023-03-03T19:07:57;4.57;;;0.73;;
44366;SDS011;30086;57.660;12.000;2023-03-03T19:15:56;2.10;;;0.68;;
44366;SDS011;30086;57.660;12.000;2023-03-03T19:18:30;4.50;;;0.85;;
44366;SDS011;30086;57.660;12.000;2023-03-03T19:21:05;5.32;;;0.85;;
44366;SDS011;30086;57.660;12.000;2023-03-03T19:23:45;7.03;;;1.00;;
44366;SDS011;30086;57.660;12.000;2023-03-03T19:26:30;4.82;;;1.20;;
44366;SDS011;30086;57.660;12.000;2023-03-03T19:32:16;6.88;;;1.27;;
44366;SDS011;30086;57.660;12.000;2023-03-03T19:37:03;5.95;;;0.73;;
44366;SDS011;30086;57.660;12.000;2023-03-03T19:50:49;2.15;;;0.60;;
44366;SDS011;30086;57.660;12.000;2023-03-03T19:58:51;5.32;;;1.02;;
44366;SDS011;30086;57.660;12.000;2023-03-03T20:01:27;10.23;;;1.20;;
44366;SDS011;30086;57.660;12.000;2023-03-03T20:08:58;4.97;;;1.17;;
44366;SDS011;30086;57.660;12.000;2023-03-03T20:19:54;2.58;;;0.80;;
44366;SDS011;30086;57.660;12.000;2023-03-03T20:25:13;0.70;;;0.57;;
44366;SDS011;30086;57.660;12.000;2023-03-03T20:33:15;6.82;;;1.60;;
44366;SDS011;30086;57.660;12.000;2023-03-03T20:44:09;14.02;;;1.65;;
44366;SDS011;30086;57.660;12.000;2023-03-03T20:46:43;3.50;;;1.08;;
44366;SDS011;30086;57.660;12.000;2023-03-03T20:49:28;3.30;;;0.90;;
44366;SDS011;30086;57.660;12.000;2023-03-03T20:52:03;6.68;;;1.73;;
44366;SDS011;30086;57.660;12.000;2023-03-03T20:54:44;3.72;;;1.15;;
44366;SDS011;30086;57.660;12.000;2023-03-03T20:57:39;7.32;;;1.63;;
44366;SDS011;30086;57.660;12.000;2023-03-03T21:05:13;0.63;;;0.20;;
44366;SDS011;30086;57.660;12.000;2023-03-03T21:07:50;3.20;;;0.80;;
44366;SDS011;30086;57.660;12.000;2023-03-03T21:10:19;15.95;;;1.88;;
44366;SDS011;30086;57.660;12.000;2023-03-03T21:12:55;5.00;;;1.13;;
44366;SDS011;30086;57.660;12.000;2023-03-03T21:15:31;14.00;;;0.88;;
44366;SDS011;30086;57.660;12.000;2023-03-03T21:18:17;6.43;;;1.63;;
44366;SDS011;30086;57.660;12.000;2023-03-03T21:20:44;4.90;;;1.10;;
44366;SDS011;30086;57.660;12.000;2023-03-03T21:23:11;6.22;;;1.08;;
44366;SDS011;30086;57.660;12.000;2023-03-03T21:25:41;3.42;;;0.90;;
44366;SDS011;30086;57.660;12.000;2023-03-03T21:28:14;5.68;;;1.02;;
44366;SDS011;30086;57.660;12.000;2023-03-03T21:36:08;8.18;;;1.52;;
44366;SDS011;30086;57.660;12.000;2023-03-03T21:38:35;1.95;;;0.88;;
44366;SDS011;30086;57.660;12.000;2023-03-03T21:41:05;15.98;;;1.73;;
44366;SDS011;30086;57.660;12.000;2023-03-03T21:43:32;11.27;;;2.10;;
44366;SDS011;30086;57.660;12.000;2023-03-03T21:45:59;11.00;;;1.80;;
44366;SDS011;30086;57.660;12.000;2023-03-03T21:48:25;6.07;;;0.82;;
44366;SDS011;30086;57.660;12.000;2023-03-03T21:50:52;9.63;;;1.75;;
44366;SDS011;30086;57.660;12.000;2023-03-03T21:53:20;22.45;;;2.15;;
44366;SDS011;30086;57.660;12.000;2023-03-03T21:55:48;12.75;;;1.80;;
44366;SDS011;30086;57.660;12.000;2023-03-03T21:58:17;8.32;;;1.83;;
44366;SDS011;30086;57.660;12.000;2023-03-03T22:00:44;9.77;;;1.63;;
44366;SDS011;30086;57.660;12.000;2023-03-03T22:03:10;3.70;;;1.50;;
44366;SDS011;30086;57.660;12.000;2023-03-03T22:05:36;10.82;;;2.08;;
44366;SDS011;30086;57.660;12.000;2023-03-03T22:08:02;7.47;;;1.55;;
44366;SDS011;30086;57.660;12.000;2023-03-03T22:10:28;10.02;;;1.88;;
44366;SDS011;30086;57.660;12.000;2023-03-03T22:12:54;5.22;;;1.08;;